createdAt,value
2022-09-12T00:01:50.934Z,13.20
2022-09-12T00:04:17.610Z,11.20
2022-09-12T00:06:44.396Z,12.00
2022-09-12T00:09:12.263Z,11.70
2022-09-12T00:11:40.154Z,11.40
2022-09-12T00:14:07.366Z,12.50
2022-09-12T00:16:34.923Z,11.20
2022-09-12T00:19:01.608Z,11.70
2022-09-12T00:21:28.320Z,11.50
2022-09-12T00:23:55.172Z,11.60
2022-09-12T00:26:22.180Z,12.80
2022-09-12T00:28:49.018Z,13.50
2022-09-12T00:31:21.318Z,12.30
2022-09-12T00:33:48.563Z,12.00
2022-09-12T00:36:17.752Z,11.40
2022-09-12T00:38:44.758Z,12.10
2022-09-12T00:41:28.785Z,11.70
2022-09-12T00:44:00.167Z,11.60
2022-09-12T00:46:29.734Z,11.50
2022-09-12T00:49:14.164Z,10.90
2022-09-12T00:51:43.696Z,11.00
2022-09-12T00:54:15.320Z,11.60
2022-09-12T00:56:42.140Z,11.60
2022-09-12T00:59:12.721Z,10.30
2022-09-12T01:01:40.016Z,10.90
2022-09-12T01:04:06.836Z,10.80
2022-09-12T01:06:36.532Z,9.40
2022-09-12T01:09:04.694Z,10.40
2022-09-12T01:11:34.694Z,10.30
2022-09-12T01:14:01.376Z,10.60
2022-09-12T01:16:28.130Z,10.00
2022-09-12T01:19:22.920Z,9.90
2022-09-12T01:22:20.817Z,10.40
2022-09-12T01:25:12.571Z,10.60
2022-09-12T01:27:42.245Z,10.50
2022-09-12T01:30:30.973Z,10.90
2022-09-12T01:33:05.245Z,10.60
2022-09-12T01:36:04.396Z,10.20
2022-09-12T01:38:47.072Z,9.50
2022-09-12T01:41:30.744Z,10.20
2022-09-12T01:44:22.780Z,9.80
2022-09-12T01:47:24.166Z,9.80
2022-09-12T01:50:15.893Z,10.60
2022-09-12T01:52:50.016Z,9.30
2022-09-12T01:55:22.686Z,9.30
2022-09-12T01:57:52.745Z,13.00
2022-09-12T02:00:19.446Z,10.50
2022-09-12T02:03:13.901Z,9.60
2022-09-12T02:05:45.006Z,10.00
2022-09-12T02:08:17.811Z,9.20
2022-09-12T02:10:54.171Z,9.30
2022-09-12T02:13:23.616Z,9.00
2022-09-12T02:15:55.385Z,9.40
2022-09-12T02:18:22.065Z,9.40
2022-09-12T02:20:49.373Z,9.10
2022-09-12T02:23:22.422Z,8.60
2022-09-12T02:25:51.213Z,7.80
2022-09-12T02:28:19.908Z,9.50
2022-09-12T02:30:53.051Z,7.70
2022-09-12T02:33:26.710Z,7.20
2022-09-12T02:35:58.077Z,7.70
2022-09-12T02:38:32.018Z,6.30
2022-09-12T02:40:58.684Z,6.00
2022-09-12T02:43:25.316Z,5.40
2022-09-12T02:45:52.034Z,5.50
2022-09-12T02:48:24.190Z,5.50
2022-09-12T02:50:50.827Z,6.70
2022-09-12T02:53:17.468Z,5.00
2022-09-12T02:55:44.077Z,7.00
2022-09-12T02:58:16.872Z,7.50
2022-09-12T03:00:55.012Z,4.80
2022-09-12T03:03:43.692Z,4.90
2022-09-12T03:06:18.436Z,4.90
2022-09-12T03:08:55.709Z,5.30
2022-09-12T03:11:40.903Z,4.40
2022-09-12T03:14:36.445Z,5.00
2022-09-12T03:17:18.957Z,4.40
2022-09-12T03:19:53.549Z,6.50
2022-09-12T03:22:38.528Z,4.90
2022-09-12T03:25:17.816Z,4.70
2022-09-12T03:27:46.734Z,4.60
2022-09-12T03:30:13.520Z,4.80
2022-09-12T03:32:48.084Z,3.80
2022-09-12T03:35:15.387Z,3.90
2022-09-12T03:37:42.196Z,3.20
2022-09-12T03:40:09.905Z,3.70
2022-09-12T03:42:36.564Z,3.70
2022-09-12T03:45:03.425Z,4.50
2022-09-12T03:47:30.226Z,3.80
2022-09-12T03:49:57.047Z,3.80
2022-09-12T03:52:24.037Z,2.90
2022-09-12T03:54:50.674Z,3.60
2022-09-12T03:57:17.380Z,3.50
2022-09-12T03:59:43.999Z,3.00
2022-09-12T04:02:13.269Z,3.00
2022-09-12T04:04:43.330Z,3.70
2022-09-12T04:07:10.843Z,3.60
2022-09-12T04:09:37.677Z,2.70
2022-09-12T04:12:04.749Z,2.80
2022-09-12T04:14:31.379Z,2.90
2022-09-12T04:16:58.025Z,3.10
2022-09-12T04:19:25.900Z,2.90
2022-09-12T04:21:52.558Z,3.50
2022-09-12T04:24:19.263Z,2.50
2022-09-12T04:26:45.940Z,2.70
2022-09-12T04:29:12.760Z,2.80
2022-09-12T04:31:39.540Z,3.20
2022-09-12T04:34:06.305Z,2.80
2022-09-12T04:36:34.468Z,3.20
2022-09-12T04:39:01.492Z,2.20
2022-09-12T04:41:30.786Z,2.40
2022-09-12T04:44:02.368Z,2.10
2022-09-12T04:46:30.493Z,1.90
2022-09-12T04:48:57.343Z,2.70
2022-09-12T04:51:28.943Z,2.40
2022-09-12T04:54:00.325Z,1.60
2022-09-12T04:56:27.169Z,1.70
2022-09-12T04:58:53.909Z,1.20
2022-09-12T05:01:21.444Z,1.80
2022-09-12T05:03:48.505Z,2.70
2022-09-12T05:06:20.100Z,2.10
2022-09-12T05:08:46.986Z,3.00
2022-09-12T05:11:15.426Z,2.50
2022-09-12T05:13:42.344Z,2.30
2022-09-12T05:16:10.997Z,2.20
2022-09-12T05:18:37.905Z,3.00
2022-09-12T05:21:06.387Z,1.80
2022-09-12T05:23:33.960Z,3.70
2022-09-12T05:26:00.785Z,2.00
2022-09-12T05:28:32.753Z,2.70
2022-09-12T05:31:03.511Z,2.70
2022-09-12T05:33:31.000Z,2.30
2022-09-12T05:35:57.674Z,2.40
2022-09-12T05:38:29.053Z,2.60
2022-09-12T05:41:12.400Z,2.30
2022-09-12T05:43:43.080Z,3.40
2022-09-12T05:46:14.036Z,2.70
2022-09-12T05:48:41.750Z,2.90
2022-09-12T05:51:10.378Z,2.30
2022-09-12T05:53:37.478Z,3.70
2022-09-12T05:56:11.873Z,2.80
2022-09-12T05:58:40.111Z,2.20
2022-09-12T06:01:14.724Z,2.80
2022-09-12T06:03:46.539Z,2.60
2022-09-12T06:06:13.791Z,2.00
2022-09-12T06:08:42.047Z,2.40
2022-09-12T06:11:09.730Z,2.80
2022-09-12T06:13:36.997Z,3.40
2022-09-12T06:16:05.458Z,3.10
2022-09-12T06:18:32.938Z,2.40
2022-09-12T06:21:09.020Z,2.60
2022-09-12T06:23:38.563Z,1.80
2022-09-12T06:26:06.142Z,3.20
2022-09-12T06:28:32.885Z,3.10
2022-09-12T06:31:11.293Z,3.30
2022-09-12T06:33:39.694Z,2.80
2022-09-12T06:36:17.470Z,3.10
2022-09-12T06:38:46.304Z,2.20
2022-09-12T06:41:13.273Z,2.80
2022-09-12T06:43:40.376Z,2.70
2022-09-12T06:46:07.623Z,3.90
2022-09-12T06:48:36.476Z,3.70
2022-09-12T06:51:09.200Z,4.50
2022-09-12T06:53:38.813Z,2.00
2022-09-12T06:56:09.963Z,2.40
2022-09-12T06:58:36.677Z,3.30
2022-09-12T07:01:08.462Z,2.80
2022-09-12T07:03:35.344Z,3.20
2022-09-12T07:06:06.768Z,2.10
2022-09-12T07:08:34.523Z,2.40
2022-09-12T07:11:08.932Z,2.40
2022-09-12T07:13:35.731Z,2.50
2022-09-12T07:16:04.012Z,2.20
2022-09-12T07:18:31.044Z,3.50
2022-09-12T07:21:00.868Z,2.30
2022-09-12T07:23:28.212Z,2.80
2022-09-12T07:25:57.185Z,2.90
2022-09-12T07:28:28.223Z,2.10
2022-09-12T07:30:55.932Z,2.30
2022-09-12T07:33:29.033Z,3.60
2022-09-12T07:36:01.089Z,2.70
2022-09-12T07:38:27.707Z,2.20
2022-09-12T07:40:54.444Z,3.20
2022-09-12T07:43:21.122Z,2.60
2022-09-12T07:45:47.796Z,2.80
2022-09-12T07:48:14.485Z,2.60
2022-09-12T07:50:45.056Z,2.80
2022-09-12T07:53:12.111Z,2.50
2022-09-12T07:55:38.732Z,3.20
2022-09-12T07:58:05.384Z,3.30
2022-09-12T08:00:35.939Z,3.00
2022-09-12T08:03:07.307Z,3.40
2022-09-12T08:05:34.062Z,3.10
2022-09-12T08:08:00.696Z,3.70
2022-09-12T08:10:27.540Z,3.50
2022-09-12T08:12:54.327Z,3.30
2022-09-12T08:15:20.988Z,3.50
2022-09-12T08:17:47.620Z,3.80
2022-09-12T08:20:14.377Z,3.60
2022-09-12T08:22:41.138Z,3.20
2022-09-12T08:25:08.702Z,3.50
2022-09-12T08:27:35.428Z,3.10
2022-09-12T08:30:02.256Z,7.80
2022-09-12T08:32:29.070Z,14.80
2022-09-12T08:34:56.200Z,6.30
2022-09-12T08:37:32.212Z,26.00
2022-09-12T08:39:59.179Z,13.00
2022-09-12T08:42:52.903Z,7.10
2022-09-12T08:45:22.966Z,4.90
2022-09-12T08:47:49.567Z,9.40
2022-09-12T08:50:20.710Z,10.40
2022-09-12T08:52:53.863Z,13.20
2022-09-12T08:55:32.886Z,8.20
2022-09-12T08:58:00.957Z,11.80
2022-09-12T09:00:33.313Z,6.50
2022-09-12T09:03:08.751Z,5.90
2022-09-12T09:05:59.254Z,2.80
2022-09-12T09:08:44.834Z,3.60
2022-09-12T09:11:17.323Z,3.00
2022-09-12T09:14:32.866Z,3.60
2022-09-12T09:16:59.499Z,2.80
2022-09-12T09:19:33.006Z,2.80
2022-09-12T09:22:32.060Z,3.70
2022-09-12T09:25:05.462Z,3.10
2022-09-12T09:30:15.413Z,2.80
2022-09-12T09:35:37.974Z,2.60
2022-09-12T09:38:07.975Z,2.70
2022-09-12T09:40:41.485Z,2.70
2022-09-12T09:43:19.756Z,2.80
2022-09-12T09:45:47.916Z,3.30
2022-09-12T09:48:23.501Z,2.50
2022-09-12T09:50:50.458Z,2.40
2022-09-12T09:53:25.420Z,3.10
2022-09-12T09:55:52.051Z,3.30
2022-09-12T09:58:29.569Z,2.90
2022-09-12T10:01:07.195Z,2.90
2022-09-12T10:03:37.505Z,3.10
2022-09-12T10:06:08.352Z,2.80
2022-09-12T10:08:36.520Z,2.90
2022-09-12T10:11:16.703Z,2.40
2022-09-12T10:16:31.829Z,4.70
2022-09-12T10:18:59.884Z,2.90
2022-09-12T10:21:41.328Z,3.10
2022-09-12T10:24:29.538Z,3.50
2022-09-12T10:27:12.562Z,3.50
2022-09-12T10:29:51.839Z,2.70
2022-09-12T10:32:30.384Z,5.20
2022-09-12T10:35:02.784Z,2.80
2022-09-12T10:37:34.396Z,3.20
2022-09-12T10:40:01.603Z,3.90
2022-09-12T10:42:57.254Z,3.40
2022-09-12T10:45:32.108Z,3.80
2022-09-12T10:48:07.514Z,4.00
2022-09-12T10:50:41.705Z,3.80
2022-09-12T10:53:25.495Z,4.50
2022-09-12T10:56:31.422Z,4.80
2022-09-12T10:59:19.918Z,3.30
2022-09-12T11:02:00.470Z,3.40
2022-09-12T11:05:04.698Z,3.30
2022-09-12T11:07:38.350Z,3.30
2022-09-12T11:10:38.012Z,5.20
2022-09-12T11:13:11.968Z,5.00
2022-09-12T11:15:49.393Z,4.30
2022-09-12T11:18:16.091Z,4.30
2022-09-12T11:21:14.141Z,4.10
2022-09-12T11:23:56.436Z,3.60
2022-09-12T11:26:50.747Z,3.50
2022-09-12T11:29:27.936Z,3.80
2022-09-12T11:32:32.224Z,3.80
2022-09-12T11:37:42.151Z,3.30
2022-09-12T11:40:24.244Z,3.70
2022-09-12T11:42:52.720Z,6.70
2022-09-12T11:45:26.827Z,3.80
2022-09-12T11:47:55.040Z,3.30
2022-09-12T11:50:27.034Z,3.80
2022-09-12T11:53:32.269Z,3.50
2022-09-12T11:56:09.445Z,3.30
2022-09-12T11:58:37.128Z,3.40
2022-09-12T12:01:18.118Z,3.30
2022-09-12T12:03:46.150Z,3.60
2022-09-12T12:06:15.854Z,5.40
2022-09-12T12:08:43.764Z,3.60
2022-09-12T12:11:11.001Z,2.90
2022-09-12T12:13:48.260Z,3.00
2022-09-12T12:16:29.248Z,2.70
2022-09-12T12:19:14.846Z,3.10
2022-09-12T12:21:45.785Z,3.00
2022-09-12T12:24:20.353Z,2.70
2022-09-12T12:26:53.088Z,2.70
2022-09-12T12:29:19.724Z,2.60
2022-09-12T12:31:59.154Z,2.90
2022-09-12T12:34:33.564Z,2.90
2022-09-12T12:37:20.291Z,4.60
2022-09-12T12:39:48.290Z,3.50
2022-09-12T12:42:33.868Z,5.60
2022-09-12T12:45:01.255Z,5.70
2022-09-12T12:47:34.536Z,6.60
2022-09-12T12:50:05.608Z,6.50
2022-09-12T12:52:33.801Z,4.80
2022-09-12T12:55:01.509Z,5.60
2022-09-12T12:57:33.494Z,4.50
2022-09-12T13:00:02.664Z,5.00
2022-09-12T13:02:33.224Z,5.40
2022-09-12T13:05:01.191Z,4.10
2022-09-12T13:07:39.122Z,3.70
2022-09-12T13:10:06.998Z,3.60
2022-09-12T13:12:36.017Z,3.40
2022-09-12T13:15:04.128Z,3.90
2022-09-12T13:17:43.712Z,5.20
2022-09-12T13:20:29.655Z,7.00
2022-09-12T13:22:57.233Z,5.50
2022-09-12T13:25:34.620Z,3.10
2022-09-12T13:28:16.573Z,5.20
2022-09-12T13:30:45.594Z,2.90
2022-09-12T13:33:19.978Z,3.70
2022-09-12T13:35:54.144Z,3.40
2022-09-12T13:38:42.755Z,3.40
2022-09-12T13:41:18.784Z,3.80
2022-09-12T13:43:47.121Z,3.30
2022-09-12T13:46:16.613Z,4.10
2022-09-12T13:48:43.716Z,4.50
2022-09-12T13:51:23.141Z,4.70
2022-09-12T13:53:50.744Z,4.50
2022-09-12T13:56:18.093Z,4.30
2022-09-12T13:58:58.835Z,5.10
2022-09-12T14:01:37.384Z,4.70
2022-09-12T14:04:33.348Z,6.80
2022-09-12T14:07:00.597Z,5.70
2022-09-12T14:09:37.058Z,5.50
2022-09-12T14:12:05.720Z,6.50
2022-09-12T14:14:36.861Z,6.80
2022-09-12T14:17:32.458Z,5.90
2022-09-12T14:20:04.119Z,4.30
2022-09-12T14:22:31.044Z,3.40
2022-09-12T14:24:58.937Z,3.70
2022-09-12T14:27:30.201Z,4.20
2022-09-12T14:30:09.178Z,3.30
2022-09-12T14:32:35.968Z,4.30
2022-09-12T14:35:11.893Z,3.00
2022-09-12T14:37:39.003Z,3.10
2022-09-12T14:40:22.439Z,3.40
2022-09-12T14:42:51.045Z,3.10
2022-09-12T14:45:26.350Z,4.00
2022-09-12T14:47:53.514Z,2.90
2022-09-12T14:50:23.394Z,3.70
2022-09-12T14:53:04.435Z,3.00
2022-09-12T14:55:32.618Z,3.60
2022-09-12T14:58:20.179Z,3.30
2022-09-12T15:01:00.331Z,3.70
2022-09-12T15:03:37.060Z,4.50
2022-09-12T15:06:05.236Z,4.90
2022-09-12T15:08:32.085Z,4.10
2022-09-12T15:10:58.964Z,4.60
2022-09-12T15:13:26.717Z,3.70
2022-09-12T15:15:55.797Z,4.10
2022-09-12T15:18:25.874Z,5.30
2022-09-12T15:20:55.280Z,5.60
2022-09-12T15:23:35.387Z,5.10
2022-09-12T15:26:02.755Z,5.50
2022-09-12T15:28:29.800Z,5.30
2022-09-12T15:30:56.975Z,5.60
2022-09-12T15:33:24.769Z,4.80
2022-09-12T15:35:52.296Z,4.70
2022-09-12T15:38:22.054Z,6.00
2022-09-12T15:40:55.869Z,5.80
2022-09-12T15:43:23.470Z,5.60
2022-09-12T15:45:51.498Z,5.90
2022-09-12T15:48:19.042Z,5.30
2022-09-12T15:50:45.901Z,4.40
2022-09-12T15:53:16.316Z,5.50
2022-09-12T15:55:44.229Z,6.00
2022-09-12T15:58:49.985Z,5.00
2022-09-12T16:01:23.039Z,5.00
2022-09-12T16:04:05.329Z,5.00
2022-09-12T16:06:37.217Z,6.90
2022-09-12T16:09:04.577Z,6.10
2022-09-12T16:11:31.282Z,6.20
2022-09-12T16:13:58.362Z,6.40
2022-09-12T16:16:25.367Z,6.60
2022-09-12T16:18:52.500Z,5.90
2022-09-12T16:21:19.284Z,5.60
2022-09-12T16:23:47.926Z,5.90
2022-09-12T16:26:14.677Z,6.30
2022-09-12T16:28:41.690Z,6.90
2022-09-12T16:31:10.165Z,6.10
2022-09-12T16:33:37.185Z,8.60
2022-09-12T16:36:08.356Z,11.10
2022-09-12T16:38:35.948Z,8.00
2022-09-12T16:41:03.670Z,8.60
2022-09-12T16:43:30.615Z,8.20
2022-09-12T16:46:02.970Z,9.30
2022-09-12T16:48:30.217Z,9.10
2022-09-12T16:51:01.978Z,11.60
2022-09-12T16:53:33.238Z,12.90
2022-09-12T16:55:59.858Z,10.50
2022-09-12T16:58:26.875Z,10.90
2022-09-12T17:01:01.558Z,10.90
2022-09-12T17:03:28.422Z,11.60
2022-09-12T17:06:03.089Z,11.40
2022-09-12T17:08:29.953Z,10.20
2022-09-12T17:11:04.356Z,10.90
2022-09-12T17:14:02.800Z,9.60
2022-09-12T17:16:18.016Z,9.30
2022-09-12T17:18:45.085Z,12.30
2022-09-12T17:21:11.830Z,10.60
2022-09-12T17:23:39.216Z,9.30
2022-09-12T17:26:06.085Z,9.40
2022-09-12T17:28:32.891Z,9.50
2022-09-12T17:31:01.234Z,10.00
2022-09-12T17:33:28.036Z,12.10
2022-09-12T17:35:54.885Z,13.10
2022-09-12T17:38:25.119Z,12.40
2022-09-12T17:40:59.477Z,10.70
2022-09-12T17:43:26.626Z,9.50
2022-09-12T17:45:57.307Z,9.50
2022-09-12T17:48:24.057Z,7.90
2022-09-12T17:50:50.739Z,6.10
2022-09-12T17:53:18.176Z,6.60
2022-09-12T17:55:45.110Z,8.70
2022-09-12T17:58:14.411Z,5.50
2022-09-12T18:00:59.789Z,6.00
2022-09-12T18:03:26.692Z,8.80
2022-09-12T18:05:54.840Z,9.00
2022-09-12T18:08:22.318Z,9.30
2022-09-12T18:10:49.764Z,9.40
2022-09-12T18:13:16.426Z,9.30
2022-09-12T18:15:43.138Z,10.20
2022-09-12T18:18:09.834Z,9.80
2022-09-12T18:20:36.455Z,10.20
2022-09-12T18:23:04.264Z,12.60
2022-09-12T18:25:30.909Z,12.70
2022-09-12T18:27:57.577Z,14.40
2022-09-12T18:30:24.212Z,15.20
2022-09-12T18:32:50.967Z,14.70
2022-09-12T18:35:17.643Z,16.60
2022-09-12T18:37:44.952Z,13.60
2022-09-12T18:40:11.952Z,14.60
2022-09-12T18:42:38.644Z,14.80
2022-09-12T18:45:06.001Z,14.60
2022-09-12T18:47:32.749Z,13.30
2022-09-12T18:49:59.455Z,12.60
2022-09-12T18:52:39.110Z,12.10
2022-09-12T18:55:05.947Z,11.90
2022-09-12T18:57:35.023Z,10.70
2022-09-12T19:00:03.463Z,9.40
2022-09-12T19:02:30.282Z,7.90
2022-09-12T19:04:56.926Z,7.30
2022-09-12T19:07:23.542Z,8.30
2022-09-12T19:09:50.356Z,8.80
2022-09-12T19:12:17.024Z,7.90
2022-09-12T19:14:43.706Z,8.00
2022-09-12T19:17:10.645Z,9.80
2022-09-12T19:19:40.490Z,8.80
2022-09-12T19:22:08.190Z,9.60
2022-09-12T19:24:35.901Z,9.50
2022-09-12T19:27:02.930Z,9.70
2022-09-12T19:29:29.697Z,8.60
2022-09-12T19:31:57.268Z,9.60
2022-09-12T19:34:23.944Z,9.60
2022-09-12T19:36:50.557Z,10.40
2022-09-12T19:39:17.665Z,10.80
2022-09-12T19:41:45.030Z,9.70
2022-09-12T19:44:12.663Z,8.90
2022-09-12T19:46:42.795Z,8.20
2022-09-12T19:49:11.116Z,7.40
2022-09-12T19:51:38.286Z,8.00
2022-09-12T19:54:06.211Z,8.50
2022-09-12T19:56:33.268Z,8.60
2022-09-12T19:59:00.330Z,8.50
2022-09-12T20:01:30.591Z,8.10
2022-09-12T20:03:58.194Z,8.60
2022-09-12T20:06:25.625Z,7.80
2022-09-12T20:08:52.477Z,7.60
2022-09-12T20:11:20.059Z,7.50
2022-09-12T20:13:47.175Z,8.40
2022-09-12T20:16:21.821Z,8.40
2022-09-12T20:18:59.709Z,7.70
2022-09-12T20:21:32.308Z,8.40
2022-09-12T20:24:00.847Z,7.70
2022-09-12T20:26:28.349Z,7.80
2022-09-12T20:28:55.796Z,9.40
2022-09-12T20:31:25.993Z,8.90
2022-09-12T20:33:55.754Z,9.30
2022-09-12T20:36:23.045Z,8.70
2022-09-12T20:38:52.073Z,8.50
2022-09-12T20:41:20.439Z,8.60
2022-09-12T20:43:54.377Z,8.80
2022-09-12T20:46:22.592Z,7.50
2022-09-12T20:48:51.323Z,9.10
2022-09-12T20:51:19.491Z,8.90
2022-09-12T20:53:46.478Z,10.00
2022-09-12T20:56:15.101Z,10.90
2022-09-12T20:58:44.399Z,9.20
2022-09-12T21:01:11.961Z,8.00
2022-09-12T21:03:39.164Z,10.00
2022-09-12T21:06:06.983Z,11.00
2022-09-12T21:08:33.689Z,8.30
2022-09-12T21:11:00.467Z,10.70
2022-09-12T21:13:27.224Z,9.00
2022-09-12T21:16:04.817Z,8.70
2022-09-12T21:18:31.989Z,7.60
2022-09-12T21:20:59.059Z,9.20
2022-09-12T21:23:26.037Z,8.20
2022-09-12T21:25:52.944Z,7.90
2022-09-12T21:28:20.058Z,7.70
2022-09-12T21:30:50.112Z,7.80
2022-09-12T21:33:17.445Z,8.20
2022-09-12T21:35:44.469Z,7.50
2022-09-12T21:38:11.384Z,7.90
2022-09-12T21:40:38.138Z,7.80
2022-09-12T21:43:07.164Z,8.10
2022-09-12T21:45:35.901Z,7.10
2022-09-12T21:48:02.849Z,7.00
2022-09-12T21:50:29.502Z,7.50
2022-09-12T21:52:56.103Z,8.40
2022-09-12T21:55:27.268Z,7.00
2022-09-12T21:57:54.784Z,7.60
2022-09-12T22:00:21.917Z,8.20
2022-09-12T22:02:48.811Z,6.40
2022-09-12T22:05:15.623Z,7.30
2022-09-12T22:07:42.389Z,7.00
2022-09-12T22:10:09.464Z,6.80
2022-09-12T22:12:36.104Z,6.20
2022-09-12T22:15:17.511Z,7.20
2022-09-12T22:17:50.567Z,5.70
2022-09-12T22:20:17.479Z,6.10
2022-09-12T22:23:20.175Z,6.40
2022-09-12T22:25:50.549Z,6.30
2022-09-12T22:28:17.194Z,5.20
2022-09-12T22:30:47.764Z,5.50
2022-09-12T22:34:40.209Z,6.50
2022-09-12T22:37:11.227Z,4.80
2022-09-12T22:39:41.623Z,5.90
2022-09-12T22:42:10.159Z,6.60
2022-09-12T22:44:36.928Z,5.50
2022-09-12T22:47:03.797Z,5.30
2022-09-12T22:49:31.012Z,4.90
2022-09-12T22:51:57.739Z,5.50
2022-09-12T22:54:24.479Z,5.70
2022-09-12T22:56:51.145Z,4.70
2022-09-12T22:59:18.312Z,4.80
2022-09-12T23:01:45.007Z,4.80
2022-09-12T23:04:11.805Z,4.90
2022-09-12T23:06:38.444Z,4.30
2022-09-12T23:09:05.106Z,4.80
2022-09-12T23:11:31.769Z,5.30
2022-09-12T23:13:58.420Z,5.00
2022-09-12T23:16:40.562Z,4.30
2022-09-12T23:19:08.504Z,5.70
2022-09-12T23:21:35.243Z,5.50
2022-09-12T23:24:02.297Z,5.10
2022-09-12T23:26:29.734Z,4.60
2022-09-12T23:29:01.213Z,5.50
2022-09-12T23:31:30.319Z,5.10
2022-09-12T23:33:58.393Z,4.90
2022-09-12T23:36:25.536Z,4.60
2022-09-12T23:38:52.264Z,4.00
2022-09-12T23:41:19.013Z,6.20
2022-09-12T23:43:45.828Z,4.70
2022-09-12T23:46:13.367Z,4.30
2022-09-12T23:48:40.160Z,4.40
2022-09-12T23:51:06.781Z,4.40
2022-09-12T23:53:33.669Z,4.00
2022-09-12T23:56:00.328Z,4.00
2022-09-12T23:58:26.994Z,4.10
